Time;durP1;ratioP1;P1;durP2;ratioP2;P2;SDS_P1;SDS_P2;PMS_P1;PMS_P2;Temp;Humidity;BMP_temperature;BMP_pressure;BME280_temperature;BME280_humidity;BME280_pressure;Samples;Min_cycle;Max_cycle;Signal;HPM_P1;HPM_P2
2023/07/27 00:01:35;;;;;;;;;;;;;;;28.56;41.19;94262.41;5027929;28;7115;-55
2023/07/27 00:04:01;;;;;;;;;;;;;;;28.55;41.07;94252.63;5070621;28;7437;-55
2023/07/27 00:06:28;;;;;;;;;;;;;;;28.55;41.27;94258.19;5055064;28;7218;-63
2023/07/27 00:09:03;;;;;;;;;;;;;;;28.55;40.94;94260.94;5046869;28;9361;-63
2023/07/27 00:11:39;;;;;;;;;;;;;;;28.53;40.87;94255.19;5051245;28;9201;-63
2023/07/27 00:14:10;;;;;;;;;;;;;;;28.55;41.52;94260.94;5038229;28;7068;-63
2023/07/27 00:16:43;;;;;;;;;;;;;;;28.55;41.60;94257.44;5030809;28;9447;-63
2023/07/27 00:19:11;;;;;;;;;;;;;;;28.53;41.12;94248.91;5067707;28;9076;-63
2023/07/27 00:21:40;;;;;;;;;;;;;;;28.50;41.11;94256.25;5070280;28;7033;-63
2023/07/27 00:24:16;;;;;;;;;;;;;;;28.53;41.00;94255.19;5036568;28;7257;-63
2023/07/27 00:26:48;;;;;;;;;;;;;;;28.53;40.77;94251.69;5064199;28;7358;-63
2023/07/27 00:29:20;;;;;;;;;;;;;;;28.53;41.44;94249.66;5052711;28;7326;-63
2023/07/27 00:32:14;;;;;;;;;;;;;;;28.52;41.24;94248.16;5054630;28;7292;-63
2023/07/27 00:34:41;;;;;;;;;;;;;;;28.53;40.79;94246.91;5052607;28;7853;-63
2023/07/27 00:37:14;;;;;;;;;;;;;;;28.49;40.94;94240.19;5048366;28;9246;-63
2023/07/27 00:39:50;;;;;;;;;;;;;;;28.52;41.47;94242.63;5037187;28;9094;-63
2023/07/27 00:42:23;;;;;;;;;;;;;;;28.52;41.28;94237.09;5070352;28;9043;-63
2023/07/27 00:45:00;;;;;;;;;;;;;;;28.52;41.09;94239.88;5030716;28;7247;-63
2023/07/27 00:47:37;;;;;;;;;;;;;;;28.50;40.91;94247.19;5070006;28;9102;-63
2023/07/27 00:50:04;;;;;;;;;;;;;;;28.50;41.18;94239.66;5045362;28;7253;-63
2023/07/27 00:52:30;;;;;;;;;;;;;;;28.48;41.32;94231.16;5037029;28;9255;-63
2023/07/27 00:55:16;;;;;;;;;;;;;;;28.50;40.91;94234.13;5050276;28;7265;-63
2023/07/27 00:57:52;;;;;;;;;;;;;;;28.48;41.21;94225.59;5049464;28;6991;-63
2023/07/27 01:00:25;;;;;;;;;;;;;;;28.46;40.87;94221.88;5067460;28;7070;-64
2023/07/27 01:02:51;;;;;;;;;;;;;;;28.48;41.12;94208.25;5036114;28;7060;-63
2023/07/27 01:05:17;;;;;;;;;;;;;;;28.47;41.25;94212.31;5053843;28;9130;-63
2023/07/27 01:07:44;;;;;;;;;;;;;;;28.47;41.25;94213.03;5050341;28;9157;-63
2023/07/27 01:10:11;;;;;;;;;;;;;;;28.44;41.28;94214.13;5038856;28;9166;-63
2023/07/27 01:12:40;;;;;;;;;;;;;;;28.47;41.40;94209.56;5042562;28;8804;-63
2023/07/27 01:15:17;;;;;;;;;;;;;;;28.46;41.13;94203.28;5031529;28;8751;-55
2023/07/27 01:18:15;;;;;;;;;;;;;;;28.47;41.02;94204.03;5034913;28;9108;-55
2023/07/27 01:20:52;;;;;;;;;;;;;;;28.46;41.22;94200.50;5053628;28;9192;-55
2023/07/27 01:23:38;;;;;;;;;;;;;;;28.46;41.22;94200.50;5036623;28;8357;-55
2023/07/27 01:26:13;;;;;;;;;;;;;;;28.46;41.15;94196.97;5050486;28;9241;-54
2023/07/27 01:29:07;;;;;;;;;;;;;;;28.45;41.10;94195.50;5038143;28;9187;-55
2023/07/27 01:31:43;;;;;;;;;;;;;;;28.39;41.33;94184.53;5050362;28;7197;-55
2023/07/27 01:34:31;;;;;;;;;;;;;;;28.42;40.73;94185.50;5031984;28;7395;-55
2023/07/27 01:37:08;;;;;;;;;;;;;;;28.42;40.90;94186.25;5028088;28;7008;-55
2023/07/27 01:39:55;;;;;;;;;;;;;;;28.42;41.52;94185.50;5052910;28;7389;-55
2023/07/27 01:42:34;;;;;;;;;;;;;;;28.39;40.91;94179.00;5068172;28;7423;-55
2023/07/27 01:45:02;;;;;;;;;;;;;;;28.39;41.30;94170.72;5028643;28;6988;-55
2023/07/27 01:47:45;;;;;;;;;;;;;;;28.40;41.14;94183.28;5052763;28;7268;-55
2023/07/27 01:50:16;;;;;;;;;;;;;;;28.40;40.81;94183.28;5051632;28;9497;-55
2023/07/27 01:52:46;;;;;;;;;;;;;;;28.40;41.31;94185.28;5035843;28;7330;-55
2023/07/27 01:55:18;;;;;;;;;;;;;;;28.36;40.88;94182.88;5035545;28;9062;-55
2023/07/27 01:57:50;;;;;;;;;;;;;;;28.39;41.08;94179.00;5025705;28;7255;-55
2023/07/27 02:00:17;;;;;;;;;;;;;;;28.37;41.73;94170.50;5047572;28;7356;-55
2023/07/27 02:02:54;;;;;;;;;;;;;;;28.37;41.22;94170.50;5041790;28;8202;-55
2023/07/27 02:05:26;;;;;;;;;;;;;;;28.37;40.65;94164.97;5044358;28;8761;-55
2023/07/27 02:08:03;;;;;;;;;;;;;;;28.36;41.01;94163.50;5051108;28;7211;-55
2023/07/27 02:10:50;;;;;;;;;;;;;;;28.36;41.10;94160.72;5051457;28;8833;-55
2023/07/27 02:13:26;;;;;;;;;;;;;;;28.34;41.41;94161.25;5035278;28;8684;-55
2023/07/27 02:16:26;;;;;;;;;;;;;;;28.36;41.34;94157.97;5061204;28;9086;-55
2023/07/27 02:19:06;;;;;;;;;;;;;;;28.32;40.79;94152.00;5049378;28;9019;-56
2023/07/27 02:21:35;;;;;;;;;;;;;;;28.33;40.84;94154.25;5045833;28;7257;-55
2023/07/27 02:24:17;;;;;;;;;;;;;;;28.35;41.28;94150.94;5070906;28;7357;-63
2023/07/27 02:26:43;;;;;;;;;;;;;;;28.35;41.54;94139.88;5037502;28;7232;-63
2023/07/27 02:29:19;;;;;;;;;;;;;;;28.32;41.12;94133.38;5031603;28;7628;-63
2023/07/27 02:31:47;;;;;;;;;;;;;;;28.34;41.42;94132.84;5024066;28;7535;-63
2023/07/27 02:34:13;;;;;;;;;;;;;;;28.32;41.41;94127.84;5034806;28;8879;-63
2023/07/27 02:36:41;;;;;;;;;;;;;;;28.33;41.51;94123.06;5049023;28;7123;-63
2023/07/27 02:39:07;;;;;;;;;;;;;;;28.33;41.04;94125.84;5049515;28;7359;-63
2023/07/27 02:41:33;;;;;;;;;;;;;;;28.32;41.15;94127.09;5043475;28;7334;-63
2023/07/27 02:43:59;;;;;;;;;;;;;;;28.33;41.44;94121.06;5024900;28;7298;-63
2023/07/27 02:46:26;;;;;;;;;;;;;;;28.32;41.34;94127.84;5047373;28;7217;-63
2023/07/27 02:48:53;;;;;;;;;;;;;;;28.32;41.06;94116.78;5042097;28;7237;-63
2023/07/27 02:51:19;;;;;;;;;;;;;;;28.31;40.95;94117.34;5034354;28;7147;-63
2023/07/27 02:53:45;;;;;;;;;;;;;;;28.30;41.44;94116.59;5049447;28;9034;-63
2023/07/27 02:56:22;;;;;;;;;;;;;;;28.31;41.28;94117.34;5031951;28;7473;-63
2023/07/27 02:58:48;;;;;;;;;;;;;;;28.31;41.28;94120.09;5052329;28;7005;-63
2023/07/27 03:01:14;;;;;;;;;;;;;;;28.30;41.21;94121.38;5031388;28;9222;-63
2023/07/27 03:03:42;;;;;;;;;;;;;;;28.32;40.99;94124.34;5038384;28;7258;-63
2023/07/27 03:06:10;;;;;;;;;;;;;;;28.31;41.26;94117.34;5035012;28;9030;-63
2023/07/27 03:08:43;;;;;;;;;;;;;;;28.32;41.33;94121.56;5067886;28;9107;-63
2023/07/27 03:11:11;;;;;;;;;;;;;;;28.29;41.05;94115.09;5033960;28;6984;-63
2023/07/27 03:13:47;;;;;;;;;;;;;;;28.31;41.25;94117.34;5029957;28;7240;-63
2023/07/27 03:16:34;;;;;;;;;;;;;;;28.32;40.88;94130.63;5052530;28;9039;-63
2023/07/27 03:19:14;;;;;;;;;;;;;;;28.31;41.08;94122.88;5050507;28;7298;-64
2023/07/27 03:21:52;;;;;;;;;;;;;;;28.29;41.05;94115.09;5067922;28;6989;-64
2023/07/27 03:24:19;;;;;;;;;;;;;;;28.30;41.06;94115.81;5042214;28;9085;-63
2023/07/27 03:26:47;;;;;;;;;;;;;;;28.29;40.85;94109.56;5051599;28;9160;-63
2023/07/27 03:29:52;;;;;;;;;;;;;;;28.29;40.88;94108.81;5050721;28;7234;-63
2023/07/27 03:32:19;;;;;;;;;;;;;;;28.29;41.23;94108.81;5052741;28;7268;-63
2023/07/27 03:34:47;;;;;;;;;;;;;;;28.28;41.22;94110.84;5036013;28;9384;-63
2023/07/27 03:37:19;;;;;;;;;;;;;;;28.27;40.93;94106.56;5036540;28;7417;-62
2023/07/27 03:40:04;;;;;;;;;;;;;;;28.26;41.11;94098.81;5052477;28;9036;-62
2023/07/27 03:42:31;;;;;;;;;;;;;;;28.27;41.03;94108.63;5063092;28;7942;-62
2023/07/27 03:44:57;;;;;;;;;;;;;;;28.28;41.40;94101.78;5051716;28;7016;-62
2023/07/27 03:47:38;;;;;;;;;;;;;;;28.28;41.42;94099.03;5045635;28;8771;-62
2023/07/27 03:50:17;;;;;;;;;;;;;;;28.26;41.44;94104.34;5040463;28;7505;-63
2023/07/27 03:53:04;;;;;;;;;;;;;;;28.27;40.88;94103.09;5052380;28;8769;-62
2023/07/27 03:55:38;;;;;;;;;;;;;;;28.25;40.94;94100.13;5054329;28;7377;-63
2023/07/27 03:58:05;;;;;;;;;;;;;;;28.24;41.12;94096.59;5070928;28;7446;-62
2023/07/27 04:00:46;;;;;;;;;;;;;;;28.25;41.22;94098.06;5054586;28;7467;-62
2023/07/27 04:03:12;;;;;;;;;;;;;;;28.24;41.28;94093.09;5055932;28;7115;-62
2023/07/27 04:05:40;;;;;;;;;;;;;;;28.21;41.24;94091.38;5037208;28;7314;-62
2023/07/27 04:08:15;;;;;;;;;;;;;;;28.24;41.49;94090.31;5026075;28;7070;-63
2023/07/27 04:10:43;;;;;;;;;;;;;;;28.24;41.18;94095.84;5042637;28;8749;-62
2023/07/27 04:13:12;;;;;;;;;;;;;;;28.27;41.02;94089.97;5055388;28;7007;-62
2023/07/27 04:15:38;;;;;;;;;;;;;;;28.28;40.86;94090.72;5049475;28;9140;-62
2023/07/27 04:18:14;;;;;;;;;;;;;;;28.27;40.70;94089.25;5053554;28;6984;-62
2023/07/27 04:21:16;;;;;;;;;;;;;;;28.28;41.08;94091.47;5042737;28;7255;-62
2023/07/27 04:23:45;;;;;;;;;;;;;;;28.27;40.54;94089.97;5051030;28;7348;-62
2023/07/27 04:26:14;;;;;;;;;;;;;;;28.26;40.64;94082.22;5036555;28;6969;-62
2023/07/27 04:28:43;;;;;;;;;;;;;;;28.27;40.66;94075.44;5054665;28;9161;-63
2023/07/27 04:31:11;;;;;;;;;;;;;;;28.25;40.95;94072.47;5050548;28;9076;-62
2023/07/27 04:34:07;;;;;;;;;;;;;;;28.27;41.12;94080.97;5050219;28;9202;-62
2023/07/27 04:36:43;;;;;;;;;;;;;;;28.27;40.91;94072.66;5052011;28;8193;-63
2023/07/27 04:39:46;;;;;;;;;;;;;;;28.26;40.80;94076.69;5052088;28;7253;-62
2023/07/27 04:42:34;;;;;;;;;;;;;;;28.26;41.09;94076.69;5032130;28;7906;-62
2023/07/27 04:45:02;;;;;;;;;;;;;;;28.25;40.58;94069.69;5040214;28;7280;-63
2023/07/27 04:47:28;;;;;;;;;;;;;;;28.23;41.36;94069.50;5041934;28;9700;-63
2023/07/27 04:49:54;;;;;;;;;;;;;;;28.23;41.17;94072.25;5033158;28;7277;-64
2023/07/27 04:52:36;;;;;;;;;;;;;;;28.24;40.80;94082.03;5038992;28;7450;-63
2023/07/27 04:55:30;;;;;;;;;;;;;;;28.24;40.84;94074.47;5048825;28;7217;-63
2023/07/27 04:58:07;;;;;;;;;;;;;;;28.22;41.05;94076.28;5035725;28;9190;-63
2023/07/27 05:00:55;;;;;;;;;;;;;;;28.25;41.01;94086.28;5027990;28;7267;-63
2023/07/27 05:03:24;;;;;;;;;;;;;;;28.24;41.26;94082.03;5044605;28;7528;-62
2023/07/27 05:06:23;;;;;;;;;;;;;;;28.26;40.88;94085.00;5035853;28;9175;-63
2023/07/27 05:09:03;;;;;;;;;;;;;;;28.25;41.21;94089.78;4970913;28;9213;-63
2023/07/27 05:11:38;;;;;;;;;;;;;;;28.26;40.77;94085.00;5000854;28;7186;-63
2023/07/27 05:14:19;;;;;;;;;;;;;;;28.25;41.24;94089.78;4974123;28;7231;-63
2023/07/27 05:16:50;;;;;;;;;;;;;;;28.24;41.14;94085.53;4964655;28;8787;-63
2023/07/27 05:19:16;;;;;;;;;;;;;;;28.23;41.20;94089.56;4968304;28;7282;-62
2023/07/27 05:22:02;;;;;;;;;;;;;;;28.23;41.10;94089.56;4972030;28;9175;-62
2023/07/27 05:24:28;;;;;;;;;;;;;;;28.24;41.49;94091.06;4954960;28;7283;-63
2023/07/27 05:27:03;;;;;;;;;;;;;;;28.24;41.09;94090.31;4989122;28;7228;-63
2023/07/27 05:30:20;;;;;;;;;;;;;;;28.24;40.84;94084.78;4972776;28;7217;-62
2023/07/27 05:32:56;;;;;;;;;;;;;;;28.24;41.10;94087.56;4915441;29;7305;-63
2023/07/27 05:35:23;;;;;;;;;;;;;;;28.22;40.56;94088.09;4891786;29;9203;-63
2023/07/27 05:37:54;;;;;;;;;;;;;;;28.22;40.73;94087.34;4899683;29;6999;-63
2023/07/27 05:40:20;;;;;;;;;;;;;;;28.20;41.05;94084.38;4899804;29;7266;-62
2023/07/27 05:43:22;;;;;;;;;;;;;;;28.22;41.18;94087.34;4914750;29;7231;-63
2023/07/27 05:45:49;;;;;;;;;;;;;;;28.21;41.33;94091.38;4914449;29;7268;-63
2023/07/27 05:48:48;;;;;;;;;;;;;;;28.22;41.03;94084.59;4918634;29;7383;-63
2023/07/27 05:51:43;;;;;;;;;;;;;;;28.20;40.57;94085.13;4897436;29;9359;-62
2023/07/27 05:54:19;;;;;;;;;;;;;;;28.18;40.93;94075.88;4887015;29;7846;-56
2023/07/27 05:57:04;;;;;;;;;;;;;;;28.17;41.50;94082.66;4878077;29;9186;-56
2023/07/27 05:59:31;;;;;;;;;;;;;;;28.17;40.83;94088.94;4862599;29;8811;-56
2023/07/27 06:02:10;;;;;;;;;;;;;;;28.15;41.24;94094.28;4843634;29;7300;-55
2023/07/27 06:04:39;;;;;;;;;;;;;;;28.15;41.08;94088.00;4877797;29;7690;-55
2023/07/27 06:07:05;;;;;;;;;;;;;;;28.14;40.91;94097.59;4857393;29;8733;-55
2023/07/27 06:09:32;;;;;;;;;;;;;;;28.14;40.96;94103.13;4862758;29;9092;-55
2023/07/27 06:11:58;;;;;;;;;;;;;;;28.11;41.02;94102.16;4860287;29;6967;-55
2023/07/27 06:14:26;;;;;;;;;;;;;;;28.13;41.33;94096.09;4867147;29;9100;-55
2023/07/27 06:17:03;;;;;;;;;;;;;;;28.10;41.33;94102.69;4877273;29;7245;-55
2023/07/27 06:19:44;;;;;;;;;;;;;;;28.12;40.95;94100.16;4883393;29;7170;-55
2023/07/27 06:22:15;;;;;;;;;;;;;;;28.10;40.96;94099.94;4880318;29;7275;-55
2023/07/27 06:25:09;;;;;;;;;;;;;;;28.12;41.16;94098.09;4880794;29;7066;-55
2023/07/27 06:28:19;;;;;;;;;;;;;;;28.13;41.09;94091.31;4939090;28;7008;-55
2023/07/27 06:31:23;;;;;;;;;;;;;;;28.14;40.88;94083.75;5009767;28;7269;-55
2023/07/27 06:33:58;;;;;;;;;;;;;;;28.14;41.68;94075.47;5051589;28;7360;-55
2023/07/27 06:36:38;;;;;;;;;;;;;;;28.10;41.09;94092.38;5036579;28;9286;-55
2023/07/27 06:39:10;;;;;;;;;;;;;;;28.12;40.99;94092.56;5065188;28;9158;-55
2023/07/27 06:41:52;;;;;;;;;;;;;;;28.11;41.11;94082.81;5049137;28;7282;-55
2023/07/27 06:44:27;;;;;;;;;;;;;;;28.07;41.02;94076.84;5035767;28;9570;-55
2023/07/27 06:47:00;;;;;;;;;;;;;;;28.11;41.16;94087.59;5067736;28;9252;-55
2023/07/27 06:49:45;;;;;;;;;;;;;;;28.10;40.88;94080.59;5042050;28;9667;-55
2023/07/27 06:52:29;;;;;;;;;;;;;;;28.10;41.56;94089.59;5050390;28;7246;-55
2023/07/27 06:55:27;;;;;;;;;;;;;;;28.12;40.91;94092.56;5046546;28;7181;-55
2023/07/27 06:57:56;;;;;;;;;;;;;;;28.14;41.33;94086.53;5051217;28;9220;-55
2023/07/27 07:00:26;;;;;;;;;;;;;;;28.11;41.04;94088.34;5034374;28;8988;-55
2023/07/27 07:02:55;;;;;;;;;;;;;;;28.10;41.33;94088.88;5048363;28;6967;-55
2023/07/27 07:05:21;;;;;;;;;;;;;;;28.10;41.01;94088.88;5020727;28;7730;-62
2023/07/27 07:07:47;;;;;;;;;;;;;;;28.10;41.21;94102.69;5053699;28;7227;-62
2023/07/27 07:10:13;;;;;;;;;;;;;;;28.10;41.34;94102.69;5047250;28;6980;-62
2023/07/27 07:12:40;;;;;;;;;;;;;;;28.10;41.27;94091.63;5037729;28;6986;-62
2023/07/27 07:15:10;;;;;;;;;;;;;;;28.09;41.48;94090.13;5036578;28;7185;-62
2023/07/27 07:17:36;;;;;;;;;;;;;;;28.10;40.83;94086.09;5035085;28;8991;-62
2023/07/27 07:20:08;;;;;;;;;;;;;;;28.10;40.90;94092.38;5036393;28;8777;-62
2023/07/27 07:22:39;;;;;;;;;;;;;;;28.10;41.29;94097.16;5030999;28;6986;-62
2023/07/27 07:25:07;;;;;;;;;;;;;;;28.09;40.95;94090.88;5054875;28;8780;-62
2023/07/27 07:27:50;;;;;;;;;;;;;;;28.08;41.19;94094.91;5051775;28;9046;-62
2023/07/27 07:30:18;;;;;;;;;;;;;;;28.07;40.83;94085.16;5042556;28;7200;-62
2023/07/27 07:32:46;;;;;;;;;;;;;;;28.05;41.54;94081.44;5070771;28;7301;-62
2023/07/27 07:35:17;;;;;;;;;;;;;;;28.07;41.33;94089.94;5032894;28;7372;-62
2023/07/27 07:37:47;;;;;;;;;;;;;;;28.07;40.77;94093.44;5037424;28;7251;-62
2023/07/27 07:40:13;;;;;;;;;;;;;;;28.07;41.41;94092.69;5035724;28;7196;-62
2023/07/27 07:42:43;;;;;;;;;;;;;;;28.07;41.14;94087.91;5052429;28;9403;-62
2023/07/27 07:45:18;;;;;;;;;;;;;;;28.07;41.25;94101.75;5053661;28;6991;-62
2023/07/27 07:47:44;;;;;;;;;;;;;;;28.07;41.06;94098.22;5047001;28;6988;-62
2023/07/27 07:50:22;;;;;;;;;;;;;;;28.07;41.68;94096.22;5054045;28;7373;-61
2023/07/27 07:52:56;;;;;;;;;;;;;;;28.07;41.19;94092.69;5054435;28;9215;-61
2023/07/27 07:55:22;;;;;;;;;;;;;;;28.07;41.07;94092.69;5023817;28;7219;-61
2023/07/27 07:58:20;;;;;;;;;;;;;;;28.06;41.58;94091.19;5051235;28;8334;-62
2023/07/27 08:01:28;;;;;;;;;;;;;;;28.02;41.34;94096.31;5066159;28;6963;-62
2023/07/27 08:04:07;;;;;;;;;;;;;;;27.97;41.39;94097.91;4993078;28;7228;-62
2023/07/27 08:06:35;;;;;;;;;;;;;;;27.96;41.40;94087.38;4994541;28;7382;-62
2023/07/27 08:09:00;;;;;;;;;;;;;;;27.96;41.36;94088.13;4994231;28;8742;-62
2023/07/27 08:11:58;;;;;;;;;;;;;;;27.97;41.46;94078.56;4977485;28;9033;-62
2023/07/27 08:15:02;;;;;;;;;;;;;;;27.97;41.59;94084.09;4992623;28;7303;-63
2023/07/27 08:17:42;;;;;;;;;;;;;;;27.97;41.55;94078.56;5003005;28;8510;-63
2023/07/27 08:20:11;;;;;;;;;;;;;;;27.97;41.62;94083.34;4991152;28;7326;-63
2023/07/27 08:23:31;;;;;;;;;;;;;;;27.97;41.48;94081.31;4995173;28;7021;-63
2023/07/27 08:26:08;;;;;;;;;;;;;;;27.96;41.55;94076.31;4955016;28;9185;-63
2023/07/27 08:28:49;;;;;;;;;;;;;;;27.97;41.62;94077.81;4939207;28;9182;-63
2023/07/27 08:31:45;;;;;;;;;;;;;;;27.96;41.53;94070.78;4935853;28;7289;-63
2023/07/27 08:34:11;;;;;;;;;;;;;;;27.97;41.93;94072.28;4875254;29;8784;-63
2023/07/27 08:36:50;;;;;;;;;;;;;;;27.97;41.58;94073.03;4880768;29;10675;-63
2023/07/27 08:39:16;;;;;;;;;;;;;;;27.98;41.77;94059.97;4913048;29;7409;-63
2023/07/27 08:41:55;;;;;;;;;;;;;;;27.98;41.88;94062.72;4897216;29;7075;-62
2023/07/27 08:44:22;;;;;;;;;;;;;;;27.99;41.23;94058.69;4913103;29;7232;-64
2023/07/27 08:46:52;;;;;;;;;;;;;;;27.97;41.46;94045.38;4881561;29;7331;-63
2023/07/27 08:49:35;;;;;;;;;;;;;;;27.98;41.46;94046.88;4882264;29;6969;-63
2023/07/27 08:52:03;;;;;;;;;;;;;;;27.98;41.28;94040.59;4877691;29;9160;-63
2023/07/27 08:54:41;;;;;;;;;;;;;;;27.98;41.74;94044.13;4909658;29;8767;-63
2023/07/27 08:57:07;;;;;;;;;;;;;;;27.96;41.76;94034.84;4896158;29;8916;-63
2023/07/27 08:59:43;;;;;;;;;;;;;;;27.98;41.38;94029.53;4915459;28;7599;-63
2023/07/27 09:02:20;;;;;;;;;;;;;;;27.95;41.60;94027.84;4938330;28;9186;-63
2023/07/27 09:05:21;;;;;;;;;;;;;;;27.98;41.50;94035.81;4953475;28;9146;-63
2023/07/27 09:08:07;;;;;;;;;;;;;;;27.94;41.65;94018.81;4944373;28;7263;-64
2023/07/27 09:10:35;;;;;;;;;;;;;;;27.97;41.21;94028.03;4982518;28;7200;-64
2023/07/27 09:13:10;;;;;;;;;;;;;;;27.99;41.69;94025.53;5027596;28;7360;-63
2023/07/27 09:15:45;;;;;;;;;;;;;;;27.99;41.49;94022.75;5028996;28;9137;-63
2023/07/27 09:18:14;;;;;;;;;;;;;;;28.00;41.45;94021.47;5051777;28;7217;-63
2023/07/27 09:20:41;;;;;;;;;;;;;;;28.00;41.30;94021.47;5038424;28;7194;-63
2023/07/27 09:23:44;;;;;;;;;;;;;;;27.99;41.49;94015.19;5049119;28;7224;-63
2023/07/27 09:26:52;;;;;;;;;;;;;;;27.99;41.68;94012.41;5027780;28;7512;-63
2023/07/27 09:29:21;;;;;;;;;;;;;;;28.00;41.00;94015.94;5051958;28;7255;-62
2023/07/27 09:32:00;;;;;;;;;;;;;;;28.01;41.26;94017.44;5069592;28;7265;-62
2023/07/27 09:34:32;;;;;;;;;;;;;;;28.03;41.54;94014.88;5035729;28;7392;-62
2023/07/27 09:37:05;;;;;;;;;;;;;;;28.03;41.38;94021.16;5036045;28;9211;-63
2023/07/27 09:39:42;;;;;;;;;;;;;;;28.03;41.53;94015.63;5033534;28;8722;-63
2023/07/27 09:42:24;;;;;;;;;;;;;;;28.03;41.54;94020.41;5049897;28;6944;-62
2023/07/27 09:44:55;;;;;;;;;;;;;;;28.04;41.32;94019.09;5056162;28;9244;-63
2023/07/27 09:47:23;;;;;;;;;;;;;;;28.02;41.31;94008.59;5042124;28;7477;-63
2023/07/27 09:50:06;;;;;;;;;;;;;;;28.06;41.17;94020.06;5052717;28;9388;-63
2023/07/27 09:52:44;;;;;;;;;;;;;;;28.07;41.50;94009.75;5053603;28;7253;-63
2023/07/27 09:55:13;;;;;;;;;;;;;;;28.06;41.17;94009.00;5034614;28;7018;-63
2023/07/27 09:57:42;;;;;;;;;;;;;;;28.06;41.02;94005.47;5053006;28;7253;-63
2023/07/27 10:00:09;;;;;;;;;;;;;;;28.05;40.75;93992.97;5041827;28;6987;-63
2023/07/27 10:02:38;;;;;;;;;;;;;;;28.06;41.50;94016.53;5050978;28;7260;-63
2023/07/27 10:05:11;;;;;;;;;;;;;;;28.06;41.45;94014.53;5035905;28;7428;-63
2023/07/27 10:08:27;;;;;;;;;;;;;;;28.08;41.55;94005.69;5064782;28;7267;-63
2023/07/27 10:10:55;;;;;;;;;;;;;;;28.08;41.38;94008.47;4988089;28;8201;-63
2023/07/27 10:13:27;;;;;;;;;;;;;;;28.09;41.58;93996.88;4975828;28;9030;-63
2023/07/27 10:16:26;;;;;;;;;;;;;;;28.10;41.54;94000.41;4991738;28;6853;-63
2023/07/27 10:19:02;;;;;;;;;;;;;;;28.10;41.47;93997.63;4991527;28;6997;-63
2023/07/27 10:21:30;;;;;;;;;;;;;;;28.12;41.42;93992.31;4997507;28;8855;-63
2023/07/27 10:24:23;;;;;;;;;;;;;;;28.13;41.71;94002.81;4990247;28;8767;-63
2023/07/27 10:26:52;;;;;;;;;;;;;;;28.13;41.72;93996.53;4991662;28;7553;-63
2023/07/27 10:29:28;;;;;;;;;;;;;;;28.13;40.82;93993.78;4991497;28;7093;-62
2023/07/27 10:32:06;;;;;;;;;;;;;;;28.13;41.62;93994.53;4972595;28;9249;-63
2023/07/27 10:34:42;;;;;;;;;;;;;;;28.15;41.84;93991.22;4987294;28;7006;-63
2023/07/27 10:37:17;;;;;;;;;;;;;;;28.15;41.22;93996.75;4989521;28;9064;-62
2023/07/27 10:39:50;;;;;;;;;;;;;;;28.15;41.92;93994.72;4988345;28;7491;-62
2023/07/27 10:42:18;;;;;;;;;;;;;;;28.16;41.13;93992.72;4988017;28;7313;-63
2023/07/27 10:45:00;;;;;;;;;;;;;;;28.18;41.60;93998.44;4984815;28;9088;-62
2023/07/27 10:47:32;;;;;;;;;;;;;;;28.18;41.47;93992.91;5006893;28;7075;-62
2023/07/27 10:50:00;;;;;;;;;;;;;;;28.16;41.55;93984.41;5033288;28;7183;-62
2023/07/27 10:52:33;;;;;;;;;;;;;;;28.19;41.50;93991.63;5032846;28;9442;-63
2023/07/27 10:55:06;;;;;;;;;;;;;;;28.18;41.07;93987.38;5050265;28;9237;-63
2023/07/27 10:57:33;;;;;;;;;;;;;;;28.21;41.25;93989.06;5033330;28;7194;-62
2023/07/27 11:00:04;;;;;;;;;;;;;;;28.22;41.50;93985.03;5034496;28;7217;-63
2023/07/27 11:02:36;;;;;;;;;;;;;;;28.24;41.02;93979.69;5034752;28;7467;-62
2023/07/27 11:05:09;;;;;;;;;;;;;;;28.25;41.24;93981.91;5033810;28;9125;-63
2023/07/27 11:07:48;;;;;;;;;;;;;;;28.26;41.21;93985.44;5022184;28;7000;-63
2023/07/27 11:10:30;;;;;;;;;;;;;;;28.24;41.04;93977.69;5045387;28;9346;-62
2023/07/27 11:12:57;;;;;;;;;;;;;;;28.26;41.16;93977.88;5047118;28;8952;-62
2023/07/27 11:16:02;;;;;;;;;;;;;;;28.26;41.75;93975.13;5046790;28;7083;-62
2023/07/27 11:18:30;;;;;;;;;;;;;;;28.24;41.33;93979.69;4982613;28;7175;-62
2023/07/27 11:21:13;;;;;;;;;;;;;;;28.26;41.22;93979.91;4974776;28;7240;-63
2023/07/27 11:23:55;;;;;;;;;;;;;;;28.27;40.84;93981.41;4974238;28;9228;-62
2023/07/27 11:26:40;;;;;;;;;;;;;;;28.25;41.47;93981.19;4975133;28;9262;-62
2023/07/27 11:29:16;;;;;;;;;;;;;;;28.26;42.00;93979.91;4975313;28;9375;-62
2023/07/27 11:32:36;;;;;;;;;;;;;;;28.24;41.65;93971.41;4964738;28;7244;-62
2023/07/27 11:35:03;;;;;;;;;;;;;;;28.22;41.23;93974.72;4924047;29;7247;-63
2023/07/27 11:37:41;;;;;;;;;;;;;;;28.27;41.21;93975.88;4928958;29;7245;-62
2023/07/27 11:40:23;;;;;;;;;;;;;;;28.26;41.50;93971.59;4934839;29;7031;-61
2023/07/27 11:43:03;;;;;;;;;;;;;;;28.23;41.94;93959.59;4932618;29;8900;-62
2023/07/27 11:45:40;;;;;;;;;;;;;;;28.23;41.99;93956.09;4920046;29;6991;-62
2023/07/27 11:48:57;;;;;;;;;;;;;;;28.25;41.47;93964.59;4925545;28;7315;-62
2023/07/27 11:51:42;;;;;;;;;;;;;;;28.28;41.32;93960.75;4943828;29;9248;-62
2023/07/27 11:54:37;;;;;;;;;;;;;;;28.26;41.78;93957.78;4951867;28;7287;-62
2023/07/27 11:57:33;;;;;;;;;;;;;;;28.27;41.94;93967.56;4956282;28;9746;-62
2023/07/27 12:00:36;;;;;;;;;;;;;;;28.28;41.35;93947.66;4966458;28;7216;-63
2023/07/27 12:03:03;;;;;;;;;;;;;;;28.29;41.75;93931.81;4936197;29;9442;-63
2023/07/27 12:05:39;;;;;;;;;;;;;;;28.30;41.27;93925.72;4933428;29;7254;-62
2023/07/27 12:08:07;;;;;;;;;;;;;;;28.34;41.67;93930.91;4911174;29;9067;-63
2023/07/27 12:10:34;;;;;;;;;;;;;;;28.38;41.08;93923.03;4883767;29;7192;-63
2023/07/27 12:13:09;;;;;;;;;;;;;;;28.40;40.93;93933.56;4882673;29;7191;-63
2023/07/27 12:15:38;;;;;;;;;;;;;;;28.38;41.44;93937.59;4863438;29;7188;-62
2023/07/27 12:18:15;;;;;;;;;;;;;;;28.41;41.67;93938.53;4871505;29;8751;-62
2023/07/27 12:20:51;;;;;;;;;;;;;;;28.45;41.59;93927.16;4872538;29;7215;-62
2023/07/27 12:23:53;;;;;;;;;;;;;;;28.47;41.67;93933.59;4878544;29;9028;-63
2023/07/27 12:26:39;;;;;;;;;;;;;;;28.48;41.47;93932.34;4853510;29;7233;-62
2023/07/27 12:29:08;;;;;;;;;;;;;;;28.54;41.08;93930.16;4897878;29;7181;-63
2023/07/27 12:32:26;;;;;;;;;;;;;;;28.56;41.53;93937.94;4897944;29;7216;-63
2023/07/27 12:34:52;;;;;;;;;;;;;;;28.54;41.33;93923.88;4897368;29;7030;-62
2023/07/27 12:37:35;;;;;;;;;;;;;;;28.56;41.24;93926.88;4910466;29;9199;-62
2023/07/27 12:40:33;;;;;;;;;;;;;;;28.57;41.51;93922.81;4914386;29;8430;-63
2023/07/27 12:43:04;;;;;;;;;;;;;;;28.56;40.92;93916.53;4884348;29;7258;-62
2023/07/27 12:45:59;;;;;;;;;;;;;;;28.58;41.56;93914.00;4901630;29;9116;-62
2023/07/27 12:48:34;;;;;;;;;;;;;;;28.61;41.05;93912.91;4880980;29;9400;-63
2023/07/27 12:51:00;;;;;;;;;;;;;;;28.66;40.94;93908.53;4864237;29;9075;-63
2023/07/27 12:53:39;;;;;;;;;;;;;;;28.64;41.22;93894.50;4877038;29;8343;-63
2023/07/27 12:56:14;;;;;;;;;;;;;;;28.64;40.93;93895.25;4878671;29;7279;-61
2023/07/27 12:58:53;;;;;;;;;;;;;;;28.66;40.94;93898.22;4879376;29;7092;-60
2023/07/27 13:01:19;;;;;;;;;;;;;;;28.66;41.62;93892.66;4868643;29;7254;-61
2023/07/27 13:03:54;;;;;;;;;;;;;;;28.65;40.93;93882.88;4888643;29;7235;-61
2023/07/27 13:06:20;;;;;;;;;;;;;;;28.68;40.78;93884.56;4869370;29;7316;-61
2023/07/27 13:09:12;;;;;;;;;;;;;;;28.70;41.34;93893.06;4879356;29;9081;-61
2023/07/27 13:11:38;;;;;;;;;;;;;;;28.74;40.79;93893.47;4913942;29;7657;-61
2023/07/27 13:14:05;;;;;;;;;;;;;;;28.76;41.75;93888.13;4930515;29;7071;-61
2023/07/27 13:16:40;;;;;;;;;;;;;;;28.75;41.03;93880.38;4933277;29;7262;-61
2023/07/27 13:19:06;;;;;;;;;;;;;;;28.73;41.46;93869.09;4958558;28;9159;-61
2023/07/27 13:21:43;;;;;;;;;;;;;;;28.71;41.56;93877.22;4999433;28;7265;-61
2023/07/27 13:24:09;;;;;;;;;;;;;;;28.73;41.24;93891.97;5002414;28;7119;-61
2023/07/27 13:26:35;;;;;;;;;;;;;;;28.72;41.09;93889.75;5033610;28;6969;-61
2023/07/27 13:29:01;;;;;;;;;;;;;;;28.73;41.05;93894.00;5033921;28;7029;-61
2023/07/27 13:31:31;;;;;;;;;;;;;;;28.74;41.12;93889.94;5027404;28;7226;-60
2023/07/27 13:34:10;;;;;;;;;;;;;;;28.73;41.32;93886.44;5044424;28;7218;-61
2023/07/27 13:36:37;;;;;;;;;;;;;;;28.75;41.48;93889.38;5042899;28;7253;-61
2023/07/27 13:39:06;;;;;;;;;;;;;;;28.75;41.04;93885.91;5052172;28;8628;-60
2023/07/27 13:41:36;;;;;;;;;;;;;;;28.75;41.53;93886.63;5041450;28;9138;-61
2023/07/27 13:44:28;;;;;;;;;;;;;;;28.76;41.86;93882.59;5044734;28;7053;-61
2023/07/27 13:46:55;;;;;;;;;;;;;;;28.77;41.37;93889.63;5051250;28;9410;-60